Time;durP1;ratioP1;P1;durP2;ratioP2;P2;SDS_P1;SDS_P2;PMS_P1;PMS_P2;Temp;Humidity;BMP_temperature;BMP_pressure;BME280_temperature;BME280_humidity;BME280_pressure;Samples;Min_cycle;Max_cycle;Signal;HPM_P1;HPM_P2
2022/06/27 00:00:56;;;;;;;21.40;3.78;;;;;;;25.44;63.99;100275.41;5055350;28;20045;-88
2022/06/27 00:03:21;;;;;;;16.77;3.03;;;;;;;25.47;62.46;100270.25;5056571;28;20033;-88
2022/06/27 00:05:47;;;;;;;13.18;3.30;;;;;;;25.48;62.25;100261.03;5054559;28;20040;-84
2022/06/27 00:08:12;;;;;;;10.57;3.28;;;;;;;25.42;62.20;100262.09;5036126;28;20055;-87
2022/06/27 00:10:40;;;;;;;13.35;3.35;;;;;;;25.44;61.83;100264.53;5054613;28;20044;-85
2022/06/27 00:13:06;;;;;;;13.35;2.90;;;;;;;25.46;61.32;100262.38;5054438;28;20032;-85
2022/06/27 00:15:31;;;;;;;11.50;3.00;;;;;;;25.40;61.71;100258.00;5054545;28;20390;-86
2022/06/27 00:17:57;;;;;;;15.55;2.75;;;;;;;25.53;60.05;100257.53;5053931;28;20072;-87
2022/06/27 00:20:24;;;;;;;13.60;2.97;;;;;;;25.48;60.70;100260.22;5037028;28;20063;-87
2022/06/27 00:22:51;;;;;;;13.60;2.67;;;;;;;25.48;60.45;100257.50;5054899;28;20115;-85
2022/06/27 00:25:17;;;;;;;19.63;2.63;;;;;;;25.45;61.00;100258.03;5053832;28;20029;-86
2022/06/27 00:27:42;;;;;;;16.42;2.70;;;;;;;25.50;60.35;100258.91;5054243;28;20500;-86
2022/06/27 00:30:08;;;;;;;19.30;2.83;;;;;;;25.47;60.34;100267.53;5055165;28;20032;-85
2022/06/27 00:32:34;;;;;;;14.18;2.88;;;;;;;25.33;61.13;100268.28;5036674;28;20047;-86
2022/06/27 00:35:00;;;;;;;20.48;2.88;;;;;;;25.29;61.02;100257.16;5035892;28;20037;-86
2022/06/27 00:37:25;;;;;;;17.15;2.95;;;;;;;25.21;61.46;100252.25;5053965;28;20033;-86
2022/06/27 00:39:51;;;;;;;18.25;2.72;;;;;;;25.18;61.65;100256.31;5035186;28;20029;-85
2022/06/27 00:42:17;;;;;;;20.65;2.80;;;;;;;25.18;61.35;100250.88;5053428;28;20037;-84
2022/06/27 00:44:43;;;;;;;14.75;2.47;;;;;;;25.23;61.00;100254.69;5053337;28;20037;-85
2022/06/27 00:47:13;;;;;;;17.60;3.50;;;;;;;25.23;61.23;100235.69;5053638;28;20040;-84
2022/06/27 00:49:39;;;;;;;13.38;2.25;;;;;;;25.08;62.10;100234.56;5053493;28;20037;-87
2022/06/27 00:52:08;;;;;;;11.75;2.53;;;;;;;25.11;62.15;100238.63;5054830;28;20394;-88
2022/06/27 00:54:40;;;;;;;18.98;2.92;;;;;;;25.19;61.91;100244.34;5053152;28;20041;-88
2022/06/27 00:57:06;;;;;;;;;;;;;;;25.17;61.93;100237.56;5053914;28;20110;-86
2022/06/27 00:59:32;;;;;;;17.45;3.03;;;;;;;25.05;61.92;100232.38;5036242;28;20323;-85
2022/06/27 01:01:59;;;;;;;13.85;2.80;;;;;;;25.09;62.05;100240.81;5057216;28;20079;-87
2022/06/27 01:04:25;;;;;;;17.30;3.42;;;;;;;24.95;62.53;100235.03;5025497;28;20036;-83
2022/06/27 01:06:51;;;;;;;20.90;3.03;;;;;;;24.85;63.07;100235.00;5058562;28;20029;-86
2022/06/27 01:09:24;;;;;;;11.52;2.60;;;;;;;25.00;62.36;100229.63;5052792;28;20486;-85
2022/06/27 01:11:50;;;;;;;14.13;2.60;;;;;;;24.92;62.41;100221.19;5057175;28;20033;-84
2022/06/27 01:14:17;;;;;;;13.88;2.85;;;;;;;24.90;62.59;100210.59;5059970;28;20120;-84
2022/06/27 01:16:43;;;;;;;13.35;2.72;;;;;;;24.90;62.92;100212.50;5058695;28;20155;-84
2022/06/27 01:19:14;;;;;;;17.65;3.50;;;;;;;24.73;63.79;100215.34;5059651;28;20032;-83
2022/06/27 01:21:44;;;;;;;11.90;2.45;;;;;;;24.75;64.16;100226.75;5049470;28;20114;-86
2022/06/27 01:24:11;;;;;;;13.02;2.95;;;;;;;24.71;64.40;100236.47;5041554;28;20049;-87
2022/06/27 01:26:38;;;;;;;17.63;3.15;;;;;;;24.84;63.48;100235.22;5041311;28;20016;-85
2022/06/27 01:29:04;;;;;;;16.83;3.05;;;;;;;24.83;63.54;100231.69;5041090;28;20043;-86
2022/06/27 01:31:31;;;;;;;13.98;2.80;;;;;;;24.86;63.33;100223.03;5040182;28;20041;-86
2022/06/27 01:33:57;;;;;;;12.40;2.55;;;;;;;24.84;63.62;100227.09;5039646;28;20044;-85
2022/06/27 01:39:12;;;;;;;18.40;3.47;;;;;;;24.79;66.71;100225.13;5040101;28;20497;-85
2022/06/27 01:41:44;;;;;;;14.65;3.60;;;;;;;24.46;70.00;100244.44;5058166;28;20026;-84
2022/06/27 01:44:10;;;;;;;11.05;2.90;;;;;;;24.18;71.50;100256.41;5039251;28;20094;-85
2022/06/27 01:46:43;;;;;;;15.25;4.20;;;;;;;24.22;72.19;100262.94;5023064;28;20048;-84
2022/06/27 01:49:11;;;;;;;10.82;3.92;;;;;;;24.02;73.55;100268.97;5056953;28;20536;-86
2022/06/27 01:51:37;;;;;;;16.13;4.32;;;;;;;23.83;75.41;100259.53;5057325;28;20063;-85
2022/06/27 01:54:04;;;;;;;18.58;4.40;;;;;;;23.94;74.93;100272.13;5039392;28;20064;-84
2022/06/27 01:56:31;;;;;;;18.70;4.68;;;;;;;23.69;76.77;100263.75;5042734;28;20045;-87
2022/06/27 01:58:59;;;;;;;18.33;4.10;;;;;;;23.58;77.56;100262.81;5027662;28;20565;-85
2022/06/27 02:01:28;;;;;;;11.68;3.88;;;;;;;23.61;77.65;100278.53;5045594;28;20052;-85
2022/06/27 02:03:56;;;;;;;16.73;4.20;;;;;;;23.57;78.28;100290.09;5045586;28;20052;-85
2022/06/27 02:06:22;;;;;;;12.30;4.05;;;;;;;23.42;78.68;100298.06;5065003;28;20035;-84
2022/06/27 02:08:54;;;;;;;13.85;4.15;;;;;;;23.32;79.48;100300.59;5042166;28;20060;-85
2022/06/27 02:11:21;;;;;;;12.23;4.47;;;;;;;23.34;80.41;100298.44;5062774;28;20389;-85
2022/06/27 02:13:53;;;;;;;14.73;4.40;;;;;;;23.29;80.97;100295.69;5064287;28;20045;-85
2022/06/27 02:16:20;;;;;;;16.38;4.38;;;;;;;23.26;80.66;100297.00;5049505;28;20040;-85
2022/06/27 02:18:47;;;;;;;17.10;4.47;;;;;;;23.28;80.54;100299.44;5043838;28;20485;-84
2022/06/27 02:21:20;;;;;;;14.68;4.45;;;;;;;23.33;81.06;100307.66;5063233;28;20037;-84
2022/06/27 02:23:46;;;;;;;12.45;4.40;;;;;;;23.47;79.66;100303.50;5061378;28;20087;-84
2022/06/27 02:26:13;;;;;;;18.38;4.22;;;;;;;23.59;78.24;100302.34;5062910;28;20473;-86
2022/06/27 02:28:39;;;;;;;13.98;3.67;;;;;;;23.44;79.34;100304.84;5044671;28;20055;-86
2022/06/27 02:31:07;;;;;;;16.92;4.60;;;;;;;23.53;78.73;100307.94;5060060;28;20048;-85
2022/06/27 02:33:34;;;;;;;16.67;3.97;;;;;;;23.65;78.06;100300.50;5042331;28;20052;-86
2022/06/27 02:36:02;;;;;;;16.73;4.13;;;;;;;23.46;79.66;100300.00;5060624;28;20112;-86
2022/06/27 02:38:29;;;;;;;15.25;4.15;;;;;;;23.33;80.03;100302.25;5045057;28;20061;-84
2022/06/27 02:40:57;;;;;;;12.18;4.53;;;;;;;23.34;79.96;100299.25;5046255;28;20064;-86
2022/06/27 02:43:27;;;;;;;12.10;4.43;;;;;;;23.15;81.07;100296.06;5062101;28;20055;-85
2022/06/27 02:45:54;;;;;;;17.02;4.30;;;;;;;23.21;81.58;100299.63;5042084;28;20566;-86
2022/06/27 02:48:22;;;;;;;17.50;4.10;;;;;;;23.12;81.66;100293.84;5045801;28;20036;-85
2022/06/27 02:51:01;;;;;;;15.75;4.07;;;;;;;22.95;83.22;100301.16;5060462;28;20040;-85
2022/06/27 02:53:39;;;;;;;12.55;4.22;;;;;;;22.97;83.26;100298.19;5041878;28;20044;-86
2022/06/27 02:56:27;;;;;;;16.65;3.75;;;;;;;22.97;83.04;100295.50;5063836;28;20064;-86
2022/06/27 02:59:14;;;;;;;12.18;3.70;;;;;;;22.94;83.31;100304.94;5048747;28;20039;-84
2022/06/27 03:01:42;;;;;;;15.00;3.78;;;;;;;22.78;83.76;100300.38;5044689;28;20041;-85
2022/06/27 03:04:08;;;;;;;15.20;4.20;;;;;;;22.57;85.41;100298.41;5061671;28;20037;-86
2022/06/27 03:06:34;;;;;;;15.00;4.05;;;;;;;22.53;86.35;100294.53;5047140;28;20036;-85
2022/06/27 03:09:00;;;;;;;15.35;4.45;;;;;;;22.57;86.23;100299.19;5046882;28;20084;-90
2022/06/27 03:11:26;;;;;;;17.90;4.18;;;;;;;22.58;86.06;100300.03;5044755;28;20097;-87
2022/06/27 03:13:53;;;;;;;18.48;5.03;;;;;;;22.60;85.97;100306.00;5045864;28;20097;-81
2022/06/27 03:16:21;;;;;;;14.50;4.20;;;;;;;22.56;86.44;100299.47;5040729;28;20032;-84
2022/06/27 03:18:48;;;;;;;15.52;3.97;;;;;;;22.30;89.41;100298.22;5055547;28;20032;-84
2022/06/27 03:21:34;;;;;;;17.80;4.90;;;;;;;22.32;89.10;100306.88;5048128;28;20033;-86
2022/06/27 03:24:01;;;;;;;16.80;5.05;;;;;;;22.47;88.01;100303.63;5038867;28;20045;-81
2022/06/27 03:26:28;;;;;;;16.38;4.25;;;;;;;22.38;88.93;100294.28;5040817;28;20037;-80
2022/06/27 03:28:54;;;;;;;18.33;4.47;;;;;;;22.35;89.22;100300.16;5047044;28;20051;-84
2022/06/27 03:31:20;;;;;;;19.92;4.43;;;;;;;22.46;88.58;100302.00;5048006;28;20044;-85
2022/06/27 03:33:49;;;;;;;18.40;4.72;;;;;;;22.53;88.09;100305.34;5035220;28;20116;-81
2022/06/27 03:36:43;;;;;;;14.60;4.38;;;;;;;22.41;88.54;100304.59;5061016;28;20080;-82
2022/06/27 03:39:11;;;;;;;14.25;4.30;;;;;;;22.45;88.97;100309.28;5030484;28;20029;-83
2022/06/27 03:41:39;;;;;;;13.38;4.70;;;;;;;22.47;88.68;100309.84;5041968;28;20040;-82
2022/06/27 03:44:11;;;;;;;14.10;4.57;;;;;;;22.55;87.95;100305.91;5041867;28;20045;-82
2022/06/27 03:46:43;;;;;;;12.90;3.90;;;;;;;22.71;87.06;100305.13;5046842;28;20067;-84
2022/06/27 03:52:01;;;;;;;19.23;5.28;;;;;;;22.71;87.38;100320.50;5049117;28;20048;-82
2022/06/27 03:54:26;;;;;;;13.50;4.53;;;;;;;22.62;87.65;100328.19;5049264;28;20048;-81
2022/06/27 03:56:53;;;;;;;22.52;4.72;;;;;;;22.68;86.14;100338.03;5047131;28;20033;-83
2022/06/27 03:59:19;;;;;;;13.95;4.57;;;;;;;22.46;88.17;100329.00;5053622;28;20037;-82
2022/06/27 04:01:46;;;;;;;15.68;4.45;;;;;;;22.40;88.63;100329.97;5043235;28;20043;-81
2022/06/27 04:04:11;;;;;;;13.70;4.38;;;;;;;22.32;88.70;100333.06;5027514;28;20029;-81
2022/06/27 04:06:39;;;;;;;22.75;4.43;;;;;;;22.33;88.58;100335.53;5049017;28;20037;-82
2022/06/27 04:09:04;;;;;;;18.63;4.40;;;;;;;22.36;88.22;100345.84;5066509;28;20044;-82
2022/06/27 04:11:30;;;;;;;29.27;5.28;;;;;;;22.32;88.48;100339.28;5067699;28;20064;-81
2022/06/27 04:13:57;;;;;;;27.80;5.22;;;;;;;22.32;88.96;100330.38;5052097;28;20048;-81
2022/06/27 04:16:41;;;;;;;74.97;7.25;;;;;;;22.37;88.80;100327.78;5073673;28;20037;-85
2022/06/27 04:19:30;;;;;;;52.53;5.47;;;;;;;22.36;87.88;100328.81;5073287;28;20079;-83
2022/06/27 04:21:55;;;;;;;34.53;5.90;;;;;;;22.41;88.35;100331.59;5075438;28;20041;-83
2022/06/27 04:24:41;;;;;;;19.13;4.30;;;;;;;22.50;86.83;100336.38;5075957;28;20043;-83
2022/06/27 04:27:07;;;;;;;13.85;3.63;;;;;;;22.52;86.90;100338.81;5057907;28;20043;-83
2022/06/27 04:29:33;;;;;;;11.88;3.83;;;;;;;22.66;85.76;100340.19;5073940;28;20049;-82
2022/06/27 04:32:00;;;;;;;20.40;4.10;;;;;;;22.54;86.33;100344.78;5050201;28;20079;-81
2022/06/27 04:34:27;;;;;;;25.67;4.28;;;;;;;22.46;87.47;100334.41;5052535;28;20040;-82
2022/06/27 04:36:53;;;;;;;14.23;3.53;;;;;;;22.62;86.38;100333.59;5054019;28;20090;-82
2022/06/27 04:39:20;;;;;;;14.63;3.75;;;;;;;22.71;86.24;100328.63;5053294;28;20033;-82
2022/06/27 04:42:13;;;;;;;15.07;3.75;;;;;;;22.81;85.72;100326.91;5026348;28;20037;-81
2022/06/27 04:44:43;;;;;;;11.98;3.60;;;;;;;22.88;85.27;100322.16;5053885;28;20063;-82
2022/06/27 04:47:13;;;;;;;14.70;3.80;;;;;;;22.99;84.54;100337.47;5053412;28;20068;-81
2022/06/27 04:50:00;;;;;;;15.63;4.15;;;;;;;23.04;84.43;100342.94;5051722;28;20103;-83
2022/06/27 04:52:26;;;;;;;21.55;4.25;;;;;;;23.01;84.53;100356.94;5052171;28;20029;-81
2022/06/27 04:54:54;;;;;;;17.80;4.50;;;;;;;23.06;84.81;100340.81;5051946;28;20112;-83
2022/06/27 04:57:20;;;;;;;12.98;3.75;;;;;;;22.99;84.61;100345.56;5051922;28;20105;-82
2022/06/27 04:59:46;;;;;;;19.85;3.95;;;;;;;22.99;85.33;100344.75;5052939;28;20048;-83
2022/06/27 05:02:31;;;;;;;20.73;4.40;;;;;;;23.06;85.02;100346.22;5057427;28;20025;-86
2022/06/27 05:04:57;;;;;;;15.80;4.07;;;;;;;23.05;85.00;100346.44;5044170;28;20064;-84
2022/06/27 05:07:23;;;;;;;17.95;4.53;;;;;;;23.20;83.26;100345.88;5058707;28;20018;-82
2022/06/27 05:09:52;;;;;;;16.38;4.18;;;;;;;23.30;82.69;100346.00;5058873;28;20041;-82
2022/06/27 05:12:19;;;;;;;19.33;3.97;;;;;;;23.35;82.67;100335.25;5043282;28;20041;-87
2022/06/27 05:14:45;;;;;;;15.65;3.90;;;;;;;23.47;82.02;100333.25;5017324;28;20041;-89
2022/06/27 05:17:11;;;;;;;27.02;4.47;;;;;;;23.59;81.37;100333.97;5040884;28;20025;-82
2022/06/27 05:19:36;;;;;;;24.23;4.15;;;;;;;23.63;81.17;100337.81;5037882;28;20195;-88
2022/06/27 05:22:04;;;;;;;21.15;4.40;;;;;;;23.95;79.29;100335.22;5040045;28;20056;-86
2022/06/27 05:24:30;;;;;;;18.50;3.90;;;;;;;24.23;78.44;100345.81;5040569;28;20037;-83
2022/06/27 05:26:56;;;;;;;20.40;4.32;;;;;;;24.28;78.06;100335.03;5055900;28;20083;-85
2022/06/27 05:29:22;;;;;;;17.17;4.13;;;;;;;24.28;78.00;100340.47;5037890;28;20497;-84
2022/06/27 05:31:48;;;;;;;21.80;4.50;;;;;;;24.31;77.77;100342.66;5037484;28;20037;-85
2022/06/27 05:34:14;;;;;;;27.42;4.15;;;;;;;24.40;77.54;100340.28;5037251;28;20060;-83
2022/06/27 05:36:41;;;;;;;18.92;4.00;;;;;;;24.45;77.73;100340.34;5037637;28;20065;-82
2022/06/27 05:39:07;;;;;;;16.42;3.40;;;;;;;24.52;76.74;100344.50;5038626;28;20037;-85
2022/06/27 05:41:34;;;;;;;18.40;3.90;;;;;;;24.65;76.06;100344.06;5037428;28;20151;-82
2022/06/27 05:44:04;;;;;;;15.30;3.90;;;;;;;24.81;75.91;100342.28;5037141;28;20098;-83
2022/06/27 05:46:30;;;;;;;21.55;4.03;;;;;;;24.93;74.87;100342.94;5036053;28;20029;-84
2022/06/27 05:49:15;;;;;;;21.63;4.07;;;;;;;25.18;73.73;100343.09;5040441;28;20041;-83
2022/06/27 05:52:00;;;;;;;20.52;4.53;;;;;;;25.36;72.93;100349.97;5057264;28;20437;-85
2022/06/27 05:54:27;;;;;;;13.68;3.85;;;;;;;25.29;77.30;100354.81;5036846;28;20128;-83
2022/06/27 05:56:53;;;;;;;25.73;4.25;;;;;;;25.22;77.06;100353.44;5039824;28;20033;-84
2022/06/27 05:59:19;;;;;;;17.67;4.05;;;;;;;25.47;76.06;100362.53;5039775;28;20526;-84
2022/06/27 06:01:46;;;;;;;15.10;3.95;;;;;;;25.62;76.84;100364.53;5040108;28;20120;-81
2022/06/27 06:04:16;;;;;;;16.60;4.70;;;;;;;25.41;81.07;100368.19;5047717;28;20088;-82
2022/06/27 06:06:43;;;;;;;17.85;4.13;;;;;;;25.46;79.85;100365.50;5044318;28;20033;-84
2022/06/27 06:09:11;;;;;;;15.50;3.95;;;;;;;25.63;79.96;100360.72;5055479;28;20037;-84
2022/06/27 06:11:38;;;;;;;15.57;4.07;;;;;;;25.70;79.59;100361.28;5052126;28;20032;-85
2022/06/27 06:14:04;;;;;;;18.83;4.75;;;;;;;25.60;79.90;100356.66;5035311;28;20525;-83
2022/06/27 06:16:30;;;;;;;20.08;4.65;;;;;;;25.73;79.99;100344.47;5061078;28;20616;-83
2022/06/27 06:18:57;;;;;;;14.05;4.32;;;;;;;25.55;82.42;100347.69;5054950;28;20060;-85
2022/06/27 06:21:23;;;;;;;21.73;5.22;;;;;;;25.55;82.79;100347.69;5083689;28;20037;-87
2022/06/27 06:23:53;;;;;;;17.23;4.32;;;;;;;25.75;82.22;100350.47;5064808;28;20187;-87
2022/06/27 06:26:20;;;;;;;17.08;4.43;;;;;;;25.98;79.36;100351.91;5049169;28;20401;-83
2022/06/27 06:28:48;;;;;;;21.55;4.97;;;;;;;25.82;80.56;100359.16;5039358;28;20021;-81
2022/06/27 06:31:23;;;;;;;23.88;5.22;;;;;;;25.88;80.68;100366.28;5047982;28;20036;-81
2022/06/27 06:33:55;;;;;;;19.73;4.75;;;;;;;25.83;81.92;100358.09;5037233;28;20037;-81
2022/06/27 06:36:21;;;;;;;25.63;5.57;;;;;;;26.32;81.33;100363.13;5019785;28;20123;-81
2022/06/27 06:38:49;;;;;;;20.85;4.95;;;;;;;26.81;77.55;100368.91;5053616;28;20029;-84
2022/06/27 06:41:15;;;;;;;20.48;5.65;;;;;;;26.40;80.05;100358.00;5037038;28;20041;-83
2022/06/27 06:43:41;;;;;;;20.25;5.72;;;;;;;26.47;81.88;100355.00;5037532;28;20086;-85
2022/06/27 06:46:26;;;;;;;21.02;5.88;;;;;;;26.98;79.43;100372.97;5039414;28;20044;-87
2022/06/27 06:49:22;;;;;;;23.67;6.15;;;;;;;26.91;79.04;100377.09;5044965;28;20037;-83
2022/06/27 06:51:48;;;;;;;30.98;5.88;;;;;;;27.06;77.94;100380.59;5054145;28;20028;-84
2022/06/27 06:54:15;;;;;;;15.70;6.45;;;;;;;27.24;78.34;100377.28;5057920;28;20059;-84
2022/06/27 06:56:41;;;;;;;20.70;6.10;;;;;;;27.43;75.92;100379.44;5057877;28;20037;-87
2022/06/27 06:59:07;;;;;;;25.88;6.22;;;;;;;27.38;77.20;100387.59;5056174;28;20032;-83
2022/06/27 07:01:35;;;;;;;17.10;5.50;;;;;;;27.48;76.77;100393.03;5058072;28;20048;-83
2022/06/27 07:04:01;;;;;;;22.63;5.45;;;;;;;27.37;76.90;100386.81;5056668;28;20063;-81
2022/06/27 07:06:29;;;;;;;22.65;5.35;;;;;;;27.45;76.66;100394.41;5037309;28;20044;-79
2022/06/27 07:08:57;;;;;;;27.80;5.40;;;;;;;27.41;77.25;100385.13;5054455;28;20140;-81
2022/06/27 07:11:31;;;;;;;19.83;4.97;;;;;;;27.63;76.67;100384.84;5055261;28;20055;-83
2022/06/27 07:13:58;;;;;;;23.95;6.13;;;;;;;27.61;77.02;100384.28;5051879;28;20036;-81
2022/06/27 07:16:26;;;;;;;20.48;6.53;;;;;;;27.34;78.42;100383.81;5055852;28;20079;-82
2022/06/27 07:18:56;;;;;;;20.23;7.43;;;;;;;27.77;75.35;100383.16;5056936;28;20068;-86
2022/06/27 07:21:23;;;;;;;23.67;6.30;;;;;;;27.89;73.92;100378.19;5057216;28;20040;-85
2022/06/27 07:23:50;;;;;;;28.13;6.88;;;;;;;27.57;76.14;100375.06;5058248;28;20416;-81
2022/06/27 07:26:17;;;;;;;21.45;7.38;;;;;;;27.66;76.36;100387.84;5059383;28;20040;-80
2022/06/27 07:28:44;;;;;;;26.65;6.72;;;;;;;27.83;75.71;100383.97;5060469;28;20033;-86
2022/06/27 07:31:12;;;;;;;25.52;8.20;;;;;;;27.67;76.36;100381.31;5057161;28;20040;-83
2022/06/27 07:33:44;;;;;;;23.17;7.90;;;;;;;27.67;77.97;100380.47;5060681;28;20041;-81
2022/06/27 07:36:17;;;;;;;29.08;7.82;;;;;;;27.89;76.34;100383.66;5063804;28;20051;-87
2022/06/27 07:38:46;;;;;;;31.80;7.95;;;;;;;28.01;73.77;100372.41;5067898;28;20402;-86
2022/06/27 07:41:13;;;;;;;19.20;7.68;;;;;;;28.23;74.23;100372.88;5059217;28;20477;-89
2022/06/27 07:43:40;;;;;;;22.33;7.40;;;;;;;28.08;74.87;100376.50;5056864;28;20024;-82
2022/06/27 07:46:06;;;;;;;29.92;6.97;;;;;;;28.14;74.35;100367.19;5060950;28;20048;-80
2022/06/27 07:48:33;;;;;;;24.10;7.93;;;;;;;27.84;76.43;100359.13;5051698;28;20025;-84
2022/06/27 07:50:58;;;;;;;26.85;7.85;;;;;;;28.23;74.35;100370.16;5071687;28;20029;-83
2022/06/27 07:53:25;;;;;;;27.80;7.97;;;;;;;28.22;73.63;100361.16;5068698;28;20044;-82
2022/06/27 07:55:57;;;;;;;20.80;6.53;;;;;;;28.76;71.20;100354.78;5067387;28;20048;-80
2022/06/27 07:58:30;;;;;;;20.10;6.60;;;;;;;29.53;68.20;100361.13;5062436;28;20041;-82
2022/06/27 08:00:59;;;;;;;18.95;6.70;;;;;;;29.47;67.52;100365.00;5039486;28;20456;-83
2022/06/27 08:03:40;;;;;;;22.75;7.60;;;;;;;29.09;70.52;100359.41;5077607;28;20039;-80
2022/06/27 08:06:20;;;;;;;22.10;7.30;;;;;;;29.59;69.05;100359.97;5077299;28;20021;-84
2022/06/27 08:08:53;;;;;;;23.60;8.13;;;;;;;29.23;72.35;100370.44;5058393;28;20033;-86
2022/06/27 08:11:40;;;;;;;23.95;8.00;;;;;;;29.39;72.12;100360.19;5056707;28;20055;-84
2022/06/27 08:14:10;;;;;;;21.48;8.13;;;;;;;29.30;73.24;100364.69;5056499;28;20072;-83
2022/06/27 08:16:39;;;;;;;30.35;8.40;;;;;;;29.71;71.10;100360.34;5054244;28;20040;-78
2022/06/27 08:19:06;;;;;;;18.90;8.07;;;;;;;29.86;68.17;100368.41;5036735;28;20374;-81
2022/06/27 08:21:34;;;;;;;23.10;8.07;;;;;;;29.89;70.11;100364.25;5025910;28;20048;-82
2022/06/27 08:24:03;;;;;;;27.90;8.57;;;;;;;29.85;69.64;100369.50;5044836;28;20084;-84
2022/06/27 08:26:30;;;;;;;21.60;8.20;;;;;;;29.87;68.29;100375.47;5028720;28;20110;-86
2022/06/27 08:28:58;;;;;;;19.48;9.00;;;;;;;29.94;69.25;100365.00;5052562;28;20465;-83
2022/06/27 08:31:25;;;;;;;20.73;7.70;;;;;;;30.11;69.46;100368.06;5052092;28;20120;-86
2022/06/27 08:33:55;;;;;;;23.77;8.30;;;;;;;30.07;66.71;100375.22;5052753;28;20482;-85
2022/06/27 08:36:21;;;;;;;25.23;7.78;;;;;;;30.10;66.78;100369.16;5053038;28;20038;-86
2022/06/27 08:38:50;;;;;;;26.27;8.50;;;;;;;29.96;66.81;100368.25;5052546;28;20037;-85
2022/06/27 08:41:17;;;;;;;23.00;7.50;;;;;;;29.52;69.50;100370.44;5022362;28;20036;-88
2022/06/27 08:43:43;;;;;;;23.60;7.28;;;;;;;29.63;70.16;100370.00;5014398;28;20037;-87
2022/06/27 08:46:15;;;;;;;18.77;7.88;;;;;;;30.02;69.39;100361.63;5041935;28;20131;-88
2022/06/27 08:48:42;;;;;;;27.17;7.82;;;;;;;30.25;66.33;100370.88;5052453;28;20087;-87
2022/06/27 08:51:09;;;;;;;22.85;7.55;;;;;;;30.10;65.00;100366.41;5045106;28;20116;-86
2022/06/27 08:53:35;;;;;;;28.48;7.35;;;;;;;30.63;63.54;100367.00;5057793;28;20049;-87
2022/06/27 08:56:02;;;;;;;41.72;9.40;;;;;;;30.40;64.72;100372.53;5054296;28;20123;-88
2022/06/27 08:58:28;;;;;;;19.83;7.80;;;;;;;30.40;64.92;100373.38;5052188;28;20078;-87
2022/06/27 09:00:56;;;;;;;23.52;8.30;;;;;;;30.72;64.17;100365.19;5052472;28;20072;-86
2022/06/27 09:03:22;;;;;;;26.92;8.30;;;;;;;30.72;63.75;100375.38;5052320;28;20090;-84
2022/06/27 09:05:59;;;;;;;31.10;8.10;;;;;;;30.80;63.38;100377.41;5051911;28;20033;-85
2022/06/27 09:08:28;;;;;;;22.90;8.50;;;;;;;30.83;60.48;100376.78;5052765;28;20037;-84
2022/06/27 09:10:56;;;;;;;32.58;9.60;;;;;;;30.94;62.20;100385.66;5039285;28;20033;-86
2022/06/27 09:13:23;;;;;;;25.20;8.18;;;;;;;31.38;61.36;100380.50;5052755;28;20470;-86
2022/06/27 09:15:59;;;;;;;22.50;8.05;;;;;;;30.99;60.68;100385.63;5052753;28;20052;-86
2022/06/27 09:18:27;;;;;;;20.75;7.05;;;;;;;30.68;61.22;100371.59;5034664;28;20127;-85
2022/06/27 09:21:04;;;;;;;18.75;8.60;;;;;;;30.48;63.96;100380.13;5034801;28;20122;-85
2022/06/27 09:23:40;;;;;;;26.38;8.15;;;;;;;30.90;62.37;100377.22;5039887;28;20037;-86
2022/06/27 09:26:20;;;;;;;21.42;8.00;;;;;;;30.70;63.57;100377.56;5038856;28;20036;-86
2022/06/27 09:28:48;;;;;;;23.40;9.27;;;;;;;31.14;59.93;100383.41;5056506;28;20032;-88
2022/06/27 09:31:26;;;;;;;17.98;7.20;;;;;;;31.33;58.81;100379.75;5061713;28;20033;-84
2022/06/27 09:34:19;;;;;;;24.20;8.55;;;;;;;31.51;57.35;100376.16;5054809;28;20568;-86
2022/06/27 09:37:00;;;;;;;20.23;7.50;;;;;;;31.22;59.18;100379.94;5065429;28;20138;-87
2022/06/27 09:39:29;;;;;;;18.50;8.30;;;;;;;30.99;61.56;100364.50;5062847;28;20460;-82
2022/06/27 09:42:15;;;;;;;20.85;8.13;;;;;;;30.91;61.08;100362.44;5049425;28;20043;-87
2022/06/27 09:44:43;;;;;;;26.60;7.82;;;;;;;31.39;58.78;100367.63;5045400;28;20644;-84
2022/06/27 09:47:18;;;;;;;20.98;7.13;;;;;;;31.85;56.33;100368.34;5067586;28;20032;-86
2022/06/27 09:49:50;;;;;;;29.40;7.82;;;;;;;31.56;57.98;100354.13;5051980;28;20029;-84
2022/06/27 09:52:16;;;;;;;;;;;;;;;31.37;58.86;100356.97;5067014;28;20068;-83
2022/06/27 09:54:49;;;;;;;26.27;8.00;;;;;;;31.71;58.27;100353.84;5065775;28;20019;-84
2022/06/27 09:57:17;;;;;;;19.23;7.88;;;;;;;31.78;57.52;100354.25;5011706;28;21143;-85
2022/06/27 09:59:45;;;;;;;29.90;7.00;;;;;;;31.31;57.50;100354.63;5041858;28;20067;-84
2022/06/27 10:02:16;;;;;;;22.27;7.15;;;;;;;31.11;60.35;100356.63;5067746;28;20112;-86
2022/06/27 10:04:43;;;;;;;23.30;7.40;;;;;;;31.25;60.61;100346.47;5066281;28;20041;-84
2022/06/27 10:07:11;;;;;;;16.73;7.47;;;;;;;31.37;59.82;100345.19;5058844;28;20032;-84
2022/06/27 10:09:40;;;;;;;25.42;8.98;;;;;;;31.13;60.22;100354.41;5068701;28;20039;-86
2022/06/27 10:12:27;;;;;;;27.05;7.38;;;;;;;31.38;59.80;100344.88;5043143;28;20492;-84
2022/06/27 10:15:10;;;;;;;25.63;6.68;;;;;;;32.01;57.57;100346.88;5039085;28;20152;-83
2022/06/27 10:17:39;;;;;;;16.98;7.05;;;;;;;32.20;56.76;100348.38;5055886;28;20126;-85
2022/06/27 10:20:16;;;;;;;23.10;6.75;;;;;;;32.19;56.90;100349.50;5059930;28;20048;-84
2022/06/27 10:23:06;;;;;;;24.92;6.32;;;;;;;32.15;56.87;100350.44;5060046;28;20116;-81
2022/06/27 10:25:33;;;;;;;26.27;7.43;;;;;;;31.73;56.47;100352.41;5038479;28;20041;-82
2022/06/27 10:28:20;;;;;;;19.77;6.20;;;;;;;31.45;59.21;100353.53;5064901;28;20037;-84
2022/06/27 10:30:47;;;;;;;24.20;6.13;;;;;;;31.74;58.67;100345.00;5061187;28;20401;-87
2022/06/27 10:33:25;;;;;;;28.08;6.80;;;;;;;31.99;56.69;100352.66;5071628;28;20117;-85
2022/06/27 10:38:32;;;;;;;27.50;6.38;;;;;;;31.91;56.83;100347.91;5054899;28;20040;-84
2022/06/27 10:41:03;;;;;;;32.72;5.47;;;;;;;31.95;56.53;100334.41;5054152;28;20071;-86
2022/06/27 10:43:49;;;;;;;26.48;5.30;;;;;;;32.33;55.53;100332.16;5055066;28;20095;-87
2022/06/27 10:46:14;;;;;;;15.48;5.18;;;;;;;32.52;54.91;100332.78;5055710;28;20037;-84
2022/06/27 10:48:55;;;;;;;29.00;5.43;;;;;;;32.60;52.79;100332.91;5056133;28;20036;-84
2022/06/27 10:51:29;;;;;;;19.73;4.85;;;;;;;32.65;52.31;100323.72;5049006;28;20040;-83
2022/06/27 10:54:04;;;;;;;24.70;5.22;;;;;;;32.07;55.23;100334.72;5047231;28;20041;-83
2022/06/27 10:56:29;;;;;;;28.85;5.03;;;;;;;32.69;53.34;100324.72;5034201;28;20033;-86
2022/06/27 10:58:56;;;;;;;19.75;4.45;;;;;;;33.22;51.10;100332.94;5048426;28;20327;-85
2022/06/27 11:01:22;;;;;;;28.98;5.25;;;;;;;33.07;51.86;100320.41;5053905;28;20504;-86
2022/06/27 11:03:49;;;;;;;27.38;4.82;;;;;;;33.10;51.72;100314.31;5054270;28;20020;-84
2022/06/27 11:06:14;;;;;;;22.20;5.53;;;;;;;32.90;51.61;100323.06;5057260;28;20060;-85
2022/06/27 11:08:43;;;;;;;22.92;7.05;;;;;;;32.98;51.48;100322.28;5055753;28;20041;-85
2022/06/27 11:11:16;;;;;;;17.27;4.63;;;;;;;32.88;51.74;100317.06;5039168;28;20032;-90
2022/06/27 11:13:45;;;;;;;21.45;4.75;;;;;;;32.37;53.50;100316.72;5054302;28;20047;-84
2022/06/27 11:16:22;;;;;;;18.00;4.13;;;;;;;32.45;53.72;100305.78;5054716;28;20028;-89
2022/06/27 11:18:53;;;;;;;21.27;4.70;;;;;;;32.67;52.76;100305.00;5054359;28;20026;-88
2022/06/27 11:21:22;;;;;;;16.90;3.90;;;;;;;32.90;53.05;100303.03;5041613;28;20037;-88
2022/06/27 11:23:53;;;;;;;17.50;4.35;;;;;;;33.34;50.93;100299.38;5054160;28;20378;-89
2022/06/27 11:26:29;;;;;;;20.67;4.63;;;;;;;33.44;49.55;100301.84;5054497;28;20029;-88
2022/06/27 11:31:58;;;;;;;27.58;4.80;;;;;;;32.48;52.51;100290.66;5037761;28;20067;-89
2022/06/27 11:34:25;;;;;;;15.93;3.55;;;;;;;32.64;52.11;100279.00;5063055;28;20492;-91
2022/06/27 11:36:57;;;;;;;15.25;4.28;;;;;;;32.81;51.98;100291.22;5069479;28;20124;-87
2022/06/27 11:39:33;;;;;;;20.48;3.83;;;;;;;32.28;51.54;100276.31;5058110;28;20025;-87